createdAt,value
2023-04-27T00:00:00.649Z,1017.77
2023-04-27T00:01:05.156Z,1017.74
2023-04-27T00:02:02.592Z,1017.76
2023-04-27T00:03:01.562Z,1017.71
2023-04-27T00:04:01.516Z,1017.71
2023-04-27T00:05:02.391Z,1017.78
2023-04-27T00:06:07.747Z,1017.72
2023-04-27T00:07:01.139Z,1017.68
2023-04-27T00:08:01.030Z,1017.73
2023-04-27T00:09:01.136Z,1017.69
2023-04-27T00:10:01.335Z,1017.66
2023-04-27T00:11:10.856Z,1017.66
2023-04-27T00:12:01.483Z,1017.73
2023-04-27T00:13:01.463Z,1017.65
2023-04-27T00:14:01.117Z,1017.64
2023-04-27T00:15:03.843Z,1017.63
2023-04-27T00:16:14.438Z,1017.68
2023-04-27T00:17:01.831Z,1017.66
2023-04-27T00:18:01.853Z,1017.62
2023-04-27T00:19:01.397Z,1017.64
2023-04-27T00:20:01.110Z,1017.66
2023-04-27T00:21:01.159Z,1017.61
2023-04-27T00:22:01.133Z,1017.57
2023-04-27T00:23:01.035Z,1017.59
2023-04-27T00:24:01.041Z,1017.54
2023-04-27T00:25:01.990Z,1017.59
2023-04-27T00:26:01.658Z,1017.54
2023-04-27T00:27:01.022Z,1017.6
2023-04-27T00:28:01.079Z,1017.6
2023-04-27T00:29:01.019Z,1017.53
2023-04-27T00:30:01.278Z,1017.52
2023-04-27T00:31:01.151Z,1017.55
2023-04-27T00:32:01.146Z,1017.53
2023-04-27T00:33:01.133Z,1017.56
2023-04-27T00:34:01.096Z,1017.56
2023-04-27T00:35:01.097Z,1017.54
2023-04-27T00:36:01.146Z,1017.54
2023-04-27T00:37:01.126Z,1017.53
2023-04-27T00:38:01.128Z,1017.58
2023-04-27T00:39:01.037Z,1017.59
2023-04-27T00:40:01.366Z,1017.6
2023-04-27T00:41:01.024Z,1017.63
2023-04-27T00:42:01.034Z,1017.62
2023-04-27T00:43:01.348Z,1017.61
2023-04-27T00:44:01.060Z,1017.6
2023-04-27T00:45:01.306Z,1017.67
2023-04-27T00:46:02.177Z,1017.69
2023-04-27T00:47:01.466Z,1017.63
2023-04-27T00:48:02.181Z,1017.68
2023-04-27T00:49:01.295Z,1017.66
2023-04-27T00:50:02.148Z,1017.66
2023-04-27T00:51:02.321Z,1017.67
2023-04-27T00:52:01.131Z,1017.66
2023-04-27T00:53:01.541Z,1017.63
2023-04-27T00:54:00.987Z,1017.67
2023-04-27T00:55:00.613Z,1017.66
2023-04-27T00:56:00.220Z,1017.7
2023-04-27T00:56:59.906Z,1017.7
2023-04-27T00:57:59.599Z,1017.69
2023-04-27T00:59:01.900Z,1017.7
2023-04-27T01:00:01.823Z,1017.69
2023-04-27T01:01:01.098Z,1017.65
2023-04-27T01:02:01.440Z,1017.66
2023-04-27T01:03:01.420Z,1017.7
2023-04-27T01:04:01.282Z,1017.69
2023-04-27T01:05:02.561Z,1017.71
2023-04-27T01:06:01.332Z,1017.71
2023-04-27T01:07:01.114Z,1017.74
2023-04-27T01:08:01.103Z,1017.76
2023-04-27T01:09:00.676Z,1017.73
2023-04-27T01:10:00.293Z,1017.76
2023-04-27T01:10:59.870Z,1017.74
2023-04-27T01:12:01.960Z,1017.71
2023-04-27T01:13:01.254Z,1017.75
2023-04-27T01:14:02.109Z,1017.73
2023-04-27T01:15:02.020Z,1017.74
2023-04-27T01:16:02.294Z,1017.73
2023-04-27T01:17:01.799Z,1017.71
2023-04-27T01:18:02.103Z,1017.74
2023-04-27T01:19:01.135Z,1017.74
2023-04-27T01:20:01.954Z,1017.72
2023-04-27T01:21:02.000Z,1017.73
2023-04-27T01:22:01.492Z,1017.76
2023-04-27T01:23:01.102Z,1017.75
2023-04-27T01:24:01.098Z,1017.77
2023-04-27T01:25:01.116Z,1017.76
2023-04-27T01:26:01.110Z,1017.74
2023-04-27T01:27:01.138Z,1017.8
2023-04-27T01:28:01.036Z,1017.79
2023-04-27T01:29:01.046Z,1017.81
2023-04-27T01:30:01.322Z,1017.76
2023-04-27T01:31:01.349Z,1017.82
2023-04-27T01:32:01.083Z,1017.82
2023-04-27T01:33:01.073Z,1017.81
2023-04-27T01:34:01.061Z,1017.83
2023-04-27T01:35:01.068Z,1017.88
2023-04-27T01:36:01.106Z,1017.83
2023-04-27T01:37:01.101Z,1017.88
2023-04-27T01:38:01.110Z,1017.82
2023-04-27T01:39:01.107Z,1017.87
2023-04-27T01:40:01.887Z,1017.9
2023-04-27T01:41:01.897Z,1017.91
2023-04-27T01:42:02.669Z,1017.89
2023-04-27T01:43:01.233Z,1017.91
2023-04-27T01:44:01.036Z,1017.9
2023-04-27T01:45:01.053Z,1017.92
2023-04-27T01:46:01.105Z,1017.94
2023-04-27T01:47:06.061Z,1017.98
2023-04-27T01:48:02.096Z,1017.98
2023-04-27T01:49:01.018Z,1017.96
2023-04-27T01:50:01.074Z,1017.94
2023-04-27T01:51:01.045Z,1017.97
2023-04-27T01:52:09.580Z,1017.99
2023-04-27T01:53:01.064Z,1018
2023-04-27T01:54:01.379Z,1017.99
2023-04-27T01:55:01.476Z,1018.03
2023-04-27T01:56:02.071Z,1018
2023-04-27T01:57:13.095Z,1018.01
2023-04-27T01:58:02.555Z,1018.03
2023-04-27T01:59:01.155Z,1018.04
2023-04-27T02:00:02.988Z,1018.06
2023-04-27T02:01:01.095Z,1018.04
2023-04-27T02:02:15.370Z,1018.03
2023-04-27T02:03:01.638Z,1018.08
2023-04-27T02:04:01.757Z,1018.03
2023-04-27T02:05:01.597Z,1018.05
2023-04-27T02:06:02.161Z,1018.07
2023-04-27T02:07:01.061Z,1018.06
2023-04-27T02:08:01.101Z,1018.04
2023-04-27T02:09:01.326Z,1018.03
2023-04-27T02:10:02.226Z,1018.07
2023-04-27T02:11:02.214Z,1018.08
2023-04-27T02:12:00.654Z,1018.09
2023-04-27T02:13:00.291Z,1018.12
2023-04-27T02:13:59.978Z,1018.08
2023-04-27T02:14:59.585Z,1018.07
2023-04-27T02:16:01.162Z,1018.09
2023-04-27T02:17:01.212Z,1018.09
2023-04-27T02:18:02.191Z,1018.09
2023-04-27T02:19:00.951Z,1018.07
2023-04-27T02:20:01.033Z,1018.08
2023-04-27T02:21:01.037Z,1018.07
2023-04-27T02:22:01.075Z,1018.03
2023-04-27T02:23:01.285Z,1018.03
2023-04-27T02:24:01.095Z,1018.05
2023-04-27T02:25:01.478Z,1018.06
2023-04-27T02:26:02.120Z,1018.06
2023-04-27T02:27:02.104Z,1018.08
2023-04-27T02:28:01.113Z,1018.07
2023-04-27T02:29:01.079Z,1018.09
2023-04-27T02:30:01.111Z,1018.1
2023-04-27T02:31:02.627Z,1018.11
2023-04-27T02:32:01.074Z,1018.09
2023-04-27T02:33:01.160Z,1018.12
2023-04-27T02:34:01.842Z,1018.09
2023-04-27T02:35:04.532Z,1018.13
2023-04-27T02:36:02.480Z,1018.12
2023-04-27T02:37:01.060Z,1018.11
2023-04-27T02:38:01.482Z,1018.14
2023-04-27T02:39:01.086Z,1018.08
2023-04-27T02:40:01.129Z,1018.09
2023-04-27T02:41:01.358Z,1018.1
2023-04-27T02:42:01.184Z,1018.09
2023-04-27T02:43:01.097Z,1018.13
2023-04-27T02:44:01.112Z,1018.08
2023-04-27T02:45:01.171Z,1018.11
2023-04-27T02:46:01.941Z,1018.11
2023-04-27T02:47:01.310Z,1018.1
2023-04-27T02:48:01.122Z,1018.1
2023-04-27T02:49:01.327Z,1018.11
2023-04-27T02:50:02.068Z,1018.14
2023-04-27T02:51:02.048Z,1018.14
2023-04-27T02:52:02.223Z,1018.12
2023-04-27T02:53:01.038Z,1018.1
2023-04-27T02:54:01.060Z,1018.11
2023-04-27T02:55:01.081Z,1018.12
2023-04-27T02:56:01.077Z,1018.15
2023-04-27T02:57:01.077Z,1018.13
2023-04-27T02:58:01.480Z,1018.12
2023-04-27T02:59:01.094Z,1018.16
2023-04-27T03:00:02.796Z,1018.14
2023-04-27T03:01:01.211Z,1018.17
2023-04-27T03:02:01.114Z,1018.18
2023-04-27T03:03:03.203Z,1018.2
2023-04-27T03:04:01.863Z,1018.2
2023-04-27T03:05:01.927Z,1018.21
2023-04-27T03:06:01.048Z,1018.2
2023-04-27T03:07:01.055Z,1018.23
2023-04-27T03:08:00.684Z,1018.22
2023-04-27T03:09:00.344Z,1018.21
2023-04-27T03:10:00.043Z,1018.22
2023-04-27T03:10:59.735Z,1018.26
2023-04-27T03:12:01.760Z,1018.25
2023-04-27T03:13:01.372Z,1018.25
2023-04-27T03:14:01.390Z,1018.26
2023-04-27T03:15:01.224Z,1018.29
2023-04-27T03:16:01.605Z,1018.3
2023-04-27T03:17:01.126Z,1018.24
2023-04-27T03:18:03.571Z,1018.28
2023-04-27T03:19:01.124Z,1018.29
2023-04-27T03:20:01.116Z,1018.31
2023-04-27T03:21:01.071Z,1018.29
2023-04-27T03:22:01.079Z,1018.31
2023-04-27T03:23:06.146Z,1018.31
2023-04-27T03:24:02.147Z,1018.31
2023-04-27T03:25:01.076Z,1018.34
2023-04-27T03:26:01.090Z,1018.36
2023-04-27T03:27:01.384Z,1018.36
2023-04-27T03:28:09.295Z,1018.38
2023-04-27T03:29:00.953Z,1018.43
2023-04-27T03:30:01.091Z,1018.37
2023-04-27T03:31:01.084Z,1018.42
2023-04-27T03:32:01.432Z,1018.45
2023-04-27T03:33:11.960Z,1018.47
2023-04-27T03:34:01.125Z,1018.45
2023-04-27T03:35:01.119Z,1018.51
2023-04-27T03:36:01.038Z,1018.48
2023-04-27T03:37:01.369Z,1018.5
2023-04-27T03:38:13.918Z,1018.54
2023-04-27T03:39:01.068Z,1018.55
2023-04-27T03:40:00.689Z,1018.53
2023-04-27T03:41:00.336Z,1018.52
2023-04-27T03:42:00.251Z,1018.51
2023-04-27T03:42:59.949Z,1018.53
2023-04-27T03:44:01.078Z,1018.55
2023-04-27T03:45:01.420Z,1018.55
2023-04-27T03:46:02.977Z,1018.53
2023-04-27T03:47:01.084Z,1018.58
2023-04-27T03:48:01.147Z,1018.54
2023-04-27T03:49:01.216Z,1018.56
2023-04-27T03:50:01.209Z,1018.56
2023-04-27T03:51:01.125Z,1018.57
2023-04-27T03:52:01.297Z,1018.56
2023-04-27T03:53:01.304Z,1018.59
2023-04-27T03:54:01.035Z,1018.62
2023-04-27T03:55:01.054Z,1018.59
2023-04-27T03:56:00.726Z,1018.66
2023-04-27T03:57:00.327Z,1018.65
2023-04-27T03:57:59.860Z,1018.67
2023-04-27T03:59:01.742Z,1018.66
2023-04-27T04:00:01.360Z,1018.69
2023-04-27T04:01:02.112Z,1018.7
2023-04-27T04:02:02.113Z,1018.71
2023-04-27T04:03:01.326Z,1018.72
2023-04-27T04:04:01.289Z,1018.65
2023-04-27T04:05:02.068Z,1018.71
2023-04-27T04:06:01.310Z,1018.69
2023-04-27T04:07:01.111Z,1018.73
2023-04-27T04:08:01.121Z,1018.76
2023-04-27T04:09:01.324Z,1018.76
2023-04-27T04:10:02.162Z,1018.77
2023-04-27T04:11:01.048Z,1018.82
2023-04-27T04:12:01.055Z,1018.83
2023-04-27T04:13:01.179Z,1018.83
2023-04-27T04:14:01.202Z,1018.79
2023-04-27T04:15:01.100Z,1018.88
2023-04-27T04:16:01.218Z,1018.84
2023-04-27T04:17:01.840Z,1018.86
2023-04-27T04:18:01.178Z,1018.86
2023-04-27T04:19:01.338Z,1018.89
2023-04-27T04:20:01.205Z,1018.87
2023-04-27T04:21:01.112Z,1018.93
2023-04-27T04:22:01.111Z,1018.92
2023-04-27T04:23:01.110Z,1018.92
2023-04-27T04:24:01.124Z,1018.93
2023-04-27T04:25:01.054Z,1018.94
2023-04-27T04:26:01.064Z,1018.98
2023-04-27T04:27:01.022Z,1018.97
2023-04-27T04:28:01.042Z,1018.95
2023-04-27T04:29:01.163Z,1018.96
2023-04-27T04:30:01.042Z,1019.01
2023-04-27T04:31:01.118Z,1018.97
2023-04-27T04:32:01.079Z,1019.07
2023-04-27T04:33:01.314Z,1019.05
2023-04-27T04:34:01.080Z,1019.04
2023-04-27T04:35:01.021Z,1019.05
2023-04-27T04:36:00.693Z,1019.07
2023-04-27T04:37:00.603Z,1019.07
2023-04-27T04:38:00.166Z,1019.08
2023-04-27T04:38:59.776Z,1019.09
2023-04-27T04:40:01.459Z,1019.06
2023-04-27T04:41:02.576Z,1019.07
2023-04-27T04:42:01.716Z,1019.13
2023-04-27T04:43:02.751Z,1019.15
2023-04-27T04:44:01.728Z,1019.1
2023-04-27T04:45:01.321Z,1019.15
2023-04-27T04:46:01.593Z,1019.15
2023-04-27T04:47:01.283Z,1019.16
2023-04-27T04:48:01.178Z,1019.16
2023-04-27T04:49:01.828Z,1019.18
2023-04-27T04:50:01.134Z,1019.13
2023-04-27T04:51:01.085Z,1019.18
2023-04-27T04:52:01.093Z,1019.23
2023-04-27T04:53:01.098Z,1019.18
2023-04-27T04:54:01.980Z,1019.19
2023-04-27T04:55:01.382Z,1019.25
2023-04-27T04:56:00.913Z,1019.19
2023-04-27T04:57:01.129Z,1019.28
2023-04-27T04:58:01.046Z,1019.26
2023-04-27T04:59:01.080Z,1019.29
2023-04-27T05:00:01.038Z,1019.29
2023-04-27T05:01:01.148Z,1019.31
2023-04-27T05:02:01.922Z,1019.32
2023-04-27T05:03:01.907Z,1019.42
2023-04-27T05:04:01.635Z,1019.36
2023-04-27T05:05:01.034Z,1019.39
2023-04-27T05:06:01.087Z,1019.35
2023-04-27T05:07:01.022Z,1019.4
2023-04-27T05:08:01.013Z,1019.35
2023-04-27T05:09:04.020Z,1019.3
2023-04-27T05:10:01.239Z,1019.36
2023-04-27T05:11:01.147Z,1019.37
2023-04-27T05:12:01.167Z,1019.35
2023-04-27T05:13:01.180Z,1019.32
2023-04-27T05:14:07.044Z,1019.37
2023-04-27T05:15:01.940Z,1019.34
2023-04-27T05:16:00.737Z,1019.34
2023-04-27T05:17:00.272Z,1019.32
2023-04-27T05:17:59.918Z,1019.3
2023-04-27T05:19:09.064Z,1019.27
2023-04-27T05:20:01.382Z,1019.26
2023-04-27T05:21:01.472Z,1019.29
2023-04-27T05:22:02.142Z,1019.32
2023-04-27T05:23:01.328Z,1019.35
2023-04-27T05:24:12.885Z,1019.31
2023-04-27T05:25:01.932Z,1019.33
2023-04-27T05:26:01.295Z,1019.34
2023-04-27T05:27:02.399Z,1019.33
2023-04-27T05:28:01.133Z,1019.38
2023-04-27T05:29:16.089Z,1019.38
2023-04-27T05:30:01.145Z,1019.4
2023-04-27T05:31:02.218Z,1019.41
2023-04-27T05:32:00.746Z,1019.46
2023-04-27T05:33:00.462Z,1019.45
2023-04-27T05:34:00.135Z,1019.46
2023-04-27T05:35:02.886Z,1019.5
2023-04-27T05:36:01.295Z,1019.47
2023-04-27T05:37:01.089Z,1019.5
2023-04-27T05:38:01.143Z,1019.5
2023-04-27T05:39:01.099Z,1019.46
2023-04-27T05:40:01.141Z,1019.55
2023-04-27T05:41:01.392Z,1019.53
2023-04-27T05:42:01.096Z,1019.53
2023-04-27T05:43:01.103Z,1019.51
2023-04-27T05:44:01.254Z,1019.52
2023-04-27T05:45:00.702Z,1019.55
2023-04-27T05:46:00.363Z,1019.5
2023-04-27T05:47:00.001Z,1019.51
2023-04-27T05:47:59.563Z,1019.48
2023-04-27T05:49:01.733Z,1019.48
2023-04-27T05:50:01.438Z,1019.49
2023-04-27T05:51:01.042Z,1019.48
2023-04-27T05:52:01.090Z,1019.51
2023-04-27T05:53:01.216Z,1019.51
2023-04-27T05:54:01.127Z,1019.5
2023-04-27T05:55:01.107Z,1019.49
2023-04-27T05:56:00.788Z,1019.49
2023-04-27T05:57:00.386Z,1019.49
2023-04-27T05:58:07.858Z,1019.5
2023-04-27T05:59:02.892Z,1019.52
2023-04-27T06:00:01.024Z,1019.53
2023-04-27T06:01:01.121Z,1019.55
2023-04-27T06:02:01.143Z,1019.51
2023-04-27T06:03:01.186Z,1019.56
2023-04-27T06:04:01.932Z,1019.54
2023-04-27T06:05:01.002Z,1019.52
2023-04-27T06:06:01.066Z,1019.5
2023-04-27T06:07:01.063Z,1019.54
2023-04-27T06:08:01.049Z,1019.53
2023-04-27T06:09:01.024Z,1019.48
2023-04-27T06:10:01.338Z,1019.5
2023-04-27T06:11:01.086Z,1019.49
2023-04-27T06:12:01.026Z,1019.53
2023-04-27T06:13:01.095Z,1019.49
2023-04-27T06:14:01.359Z,1019.48
2023-04-27T06:15:01.655Z,1019.5
2023-04-27T06:16:01.181Z,1019.5
2023-04-27T06:17:01.212Z,1019.49
2023-04-27T06:18:01.044Z,1019.45
2023-04-27T06:19:01.536Z,1019.48
2023-04-27T06:20:01.809Z,1019.47
2023-04-27T06:21:01.454Z,1019.45
2023-04-27T06:22:01.441Z,1019.47
2023-04-27T06:23:01.198Z,1019.42
2023-04-27T06:24:01.138Z,1019.47
2023-04-27T06:25:01.076Z,1019.45
2023-04-27T06:26:01.103Z,1019.46
2023-04-27T06:27:01.097Z,1019.42
2023-04-27T06:28:01.120Z,1019.51
2023-04-27T06:29:01.457Z,1019.44
2023-04-27T06:30:00.684Z,1019.5
2023-04-27T06:31:00.423Z,1019.46
2023-04-27T06:32:00.080Z,1019.51
2023-04-27T06:32:59.813Z,1019.5
2023-04-27T06:34:01.453Z,1019.52
2023-04-27T06:35:01.051Z,1019.5
2023-04-27T06:36:00.714Z,1019.5
2023-04-27T06:37:00.354Z,1019.56
2023-04-27T06:37:59.928Z,1019.56
2023-04-27T06:38:59.778Z,1019.55
2023-04-27T06:40:02.807Z,1019.58
2023-04-27T06:41:01.851Z,1019.56
2023-04-27T06:42:01.113Z,1019.55
2023-04-27T06:43:01.083Z,1019.56
2023-04-27T06:44:00.800Z,1019.53
2023-04-27T06:45:00.515Z,1019.57
2023-04-27T06:46:00.290Z,1019.6
2023-04-27T06:47:00.050Z,1019.56
2023-04-27T06:47:59.829Z,1019.55
2023-04-27T06:49:01.556Z,1019.53
2023-04-27T06:50:01.675Z,1019.55
2023-04-27T06:51:02.080Z,1019.6
2023-04-27T06:52:01.059Z,1019.56
2023-04-27T06:53:01.084Z,1019.61
2023-04-27T06:54:01.507Z,1019.62
2023-04-27T06:55:03.504Z,1019.69
2023-04-27T06:56:01.629Z,1019.65
2023-04-27T06:57:01.069Z,1019.66
2023-04-27T06:58:00.661Z,1019.72
2023-04-27T06:59:00.209Z,1019.75
2023-04-27T07:00:04.693Z,1019.75
2023-04-27T07:01:02.535Z,1019.76
2023-04-27T07:02:01.127Z,1019.73
2023-04-27T07:03:02.537Z,1019.72
2023-04-27T07:04:01.611Z,1019.73
2023-04-27T07:05:07.682Z,1019.7
2023-04-27T07:06:01.139Z,1019.7
2023-04-27T07:07:01.035Z,1019.66
2023-04-27T07:08:03.918Z,1019.68
2023-04-27T07:09:01.050Z,1019.67
2023-04-27T07:10:09.164Z,1019.66
2023-04-27T07:11:03.867Z,1019.74
2023-04-27T07:12:01.389Z,1019.74
2023-04-27T07:13:00.460Z,1019.75
2023-04-27T07:13:59.989Z,1019.81
2023-04-27T07:15:12.774Z,1019.79
2023-04-27T07:16:01.074Z,1019.8
2023-04-27T07:17:01.097Z,1019.78
2023-04-27T07:18:00.720Z,1019.8
2023-04-27T07:19:00.318Z,1019.74
2023-04-27T07:20:14.957Z,1019.77
2023-04-27T07:21:01.138Z,1019.73
2023-04-27T07:22:01.596Z,1019.77
2023-04-27T07:23:00.785Z,1019.76
2023-04-27T07:24:00.426Z,1019.72
2023-04-27T07:25:00.018Z,1019.72
2023-04-27T07:25:59.588Z,1019.75
2023-04-27T07:27:01.737Z,1019.76
2023-04-27T07:28:01.296Z,1019.77
2023-04-27T07:29:08.298Z,1019.77
2023-04-27T07:30:01.094Z,1019.79
2023-04-27T07:31:01.094Z,1019.76
2023-04-27T07:32:01.157Z,1019.78
2023-04-27T07:33:01.215Z,1019.76
2023-04-27T07:34:01.132Z,1019.77
2023-04-27T07:35:00.802Z,1019.78
2023-04-27T07:36:00.402Z,1019.8
2023-04-27T07:36:59.982Z,1019.85
2023-04-27T07:37:59.567Z,1019.82
2023-04-27T07:39:02.109Z,1019.88
2023-04-27T07:40:01.849Z,1019.83
2023-04-27T07:41:01.105Z,1019.91
2023-04-27T07:42:01.040Z,1019.88
2023-04-27T07:43:01.324Z,1019.9
2023-04-27T07:44:01.100Z,1019.9
2023-04-27T07:45:01.086Z,1019.9
2023-04-27T07:46:01.481Z,1019.86
2023-04-27T07:47:01.105Z,1019.87
2023-04-27T07:48:01.126Z,1019.89
2023-04-27T07:49:01.032Z,1019.92
2023-04-27T07:50:01.111Z,1019.93
2023-04-27T07:51:01.148Z,1019.92
2023-04-27T07:52:01.112Z,1019.94
2023-04-27T07:53:00.684Z,1019.95
2023-04-27T07:54:00.313Z,1019.92
2023-04-27T07:54:59.883Z,1019.93
2023-04-27T07:55:59.538Z,1019.94
2023-04-27T07:57:02.021Z,1019.91
2023-04-27T07:58:01.553Z,1019.91
2023-04-27T07:59:01.069Z,1019.92
2023-04-27T08:00:01.070Z,1019.93
2023-04-27T08:01:01.081Z,1019.93
2023-04-27T08:02:17.709Z,1019.94
2023-04-27T08:03:01.124Z,1019.86
2023-04-27T08:04:02.125Z,1019.95
2023-04-27T08:05:02.478Z,1019.94
2023-04-27T08:06:02.189Z,1019.9
2023-04-27T08:07:01.569Z,1019.97
2023-04-27T08:08:02.160Z,1019.96
2023-04-27T08:09:01.123Z,1019.94
2023-04-27T08:10:01.041Z,1019.98
2023-04-27T08:11:01.032Z,1019.96
2023-04-27T08:12:01.026Z,1020
2023-04-27T08:13:00.609Z,1019.94
2023-04-27T08:14:00.580Z,1019.97
2023-04-27T08:15:00.156Z,1020.03
2023-04-27T08:15:59.918Z,1020.01
2023-04-27T08:16:59.583Z,1019.99
2023-04-27T08:18:02.642Z,1020
2023-04-27T08:19:01.737Z,1020.05
2023-04-27T08:20:01.289Z,1020.05
2023-04-27T08:21:02.541Z,1020.03
2023-04-27T08:22:01.155Z,1020
2023-04-27T08:23:01.286Z,1019.97
2023-04-27T08:24:01.334Z,1019.98
2023-04-27T08:25:01.141Z,1020
2023-04-27T08:26:01.254Z,1019.99
2023-04-27T08:27:02.757Z,1019.98
2023-04-27T08:28:01.461Z,1019.95
2023-04-27T08:29:04.708Z,1019.97
2023-04-27T08:30:01.014Z,1019.98
2023-04-27T08:31:01.081Z,1019.96
2023-04-27T08:32:01.442Z,1019.97
2023-04-27T08:33:01.911Z,1019.96
2023-04-27T08:34:01.081Z,1019.95
2023-04-27T08:35:01.129Z,1019.95
2023-04-27T08:36:01.700Z,1019.91
2023-04-27T08:37:01.090Z,1019.95
2023-04-27T08:38:00.691Z,1019.9
2023-04-27T08:39:00.370Z,1020.01
2023-04-27T08:40:00.649Z,1019.98
2023-04-27T08:41:10.884Z,1019.95
2023-04-27T08:42:01.038Z,1019.98
2023-04-27T08:43:00.626Z,1020.03
2023-04-27T08:44:00.275Z,1019.94
2023-04-27T08:44:59.895Z,1019.94
2023-04-27T08:46:03.478Z,1019.97
2023-04-27T08:47:01.076Z,1020.02
2023-04-27T08:48:01.117Z,1020.01
2023-04-27T08:49:01.089Z,1020.04
2023-04-27T08:50:01.079Z,1020.04
2023-04-27T08:51:06.341Z,1020.05
2023-04-27T08:52:02.163Z,1020.01
2023-04-27T08:53:01.611Z,1019.93
2023-04-27T08:54:01.103Z,1019.92
2023-04-27T08:55:01.110Z,1019.94
2023-04-27T08:56:09.637Z,1019.92
2023-04-27T08:57:01.140Z,1019.96
2023-04-27T08:58:00.591Z,1019.94
2023-04-27T08:59:00.211Z,1020
2023-04-27T08:59:59.809Z,1020.02
2023-04-27T09:01:13.264Z,1019.96
2023-04-27T09:02:01.341Z,1020.01
2023-04-27T09:03:02.135Z,1019.97
2023-04-27T09:04:01.381Z,1019.95
2023-04-27T09:05:01.402Z,1019.95
2023-04-27T09:06:15.137Z,1019.9
2023-04-27T09:07:01.079Z,1019.91
2023-04-27T09:08:00.680Z,1019.88
2023-04-27T09:09:00.387Z,1020
2023-04-27T09:10:00.090Z,1019.9
2023-04-27T09:10:59.769Z,1019.88
2023-04-27T09:12:01.652Z,1019.9
2023-04-27T09:13:01.755Z,1019.9
2023-04-27T09:14:01.025Z,1019.9
2023-04-27T09:15:00.717Z,1019.97
2023-04-27T09:16:00.476Z,1019.95
2023-04-27T09:17:00.377Z,1019.98
2023-04-27T09:18:00.486Z,1019.91
2023-04-27T09:19:00.525Z,1019.92
2023-04-27T09:20:00.150Z,1019.92
2023-04-27T09:20:59.917Z,1019.94
2023-04-27T09:21:59.556Z,1019.91
2023-04-27T09:23:01.166Z,1019.87
2023-04-27T09:24:01.096Z,1019.88
2023-04-27T09:25:01.085Z,1019.87
2023-04-27T09:26:01.107Z,1019.86
2023-04-27T09:27:01.319Z,1019.87
2023-04-27T09:28:00.792Z,1019.87
2023-04-27T09:29:00.381Z,1019.94
2023-04-27T09:29:59.985Z,1019.87
2023-04-27T09:30:59.712Z,1019.88
2023-04-27T09:32:01.388Z,1019.86
2023-04-27T09:33:00.534Z,1019.87
2023-04-27T09:34:00.214Z,1019.85
2023-04-27T09:34:59.837Z,1019.86
2023-04-27T09:36:01.448Z,1019.8
2023-04-27T09:37:01.449Z,1019.76
2023-04-27T09:38:00.666Z,1019.79
2023-04-27T09:39:00.268Z,1019.81
2023-04-27T09:39:59.849Z,1019.87
2023-04-27T09:41:01.871Z,1019.82
2023-04-27T09:42:01.111Z,1019.85
2023-04-27T09:43:00.495Z,1019.78
2023-04-27T09:44:00.120Z,1019.85
2023-04-27T09:44:59.915Z,1019.86
2023-04-27T09:45:59.610Z,1019.83
2023-04-27T09:47:02.212Z,1019.82
2023-04-27T09:48:01.355Z,1019.78
2023-04-27T09:49:01.951Z,1019.81
2023-04-27T09:50:02.662Z,1019.79
2023-04-27T09:51:01.038Z,1019.75
2023-04-27T09:52:01.110Z,1019.74
2023-04-27T09:53:00.652Z,1019.75
2023-04-27T09:54:00.233Z,1019.79
2023-04-27T09:54:59.840Z,1019.75
2023-04-27T09:56:02.274Z,1019.75
2023-04-27T09:57:01.078Z,1019.75
2023-04-27T09:58:00.683Z,1019.74
2023-04-27T09:59:00.277Z,1019.69
2023-04-27T09:59:59.961Z,1019.71
2023-04-27T10:00:59.813Z,1019.77
2023-04-27T10:02:07.378Z,1019.74
2023-04-27T10:03:01.478Z,1019.71
2023-04-27T10:04:01.582Z,1019.74
2023-04-27T10:05:01.188Z,1019.73
2023-04-27T10:06:01.047Z,1019.74
2023-04-27T10:07:01.062Z,1019.73
2023-04-27T10:08:00.860Z,1019.77
2023-04-27T10:09:00.386Z,1019.73
2023-04-27T10:09:59.922Z,1019.73
2023-04-27T10:10:59.529Z,1019.65
2023-04-27T10:12:01.111Z,1019.66
2023-04-27T10:13:00.901Z,1019.65
2023-04-27T10:14:01.471Z,1019.64
2023-04-27T10:15:00.590Z,1019.62
2023-04-27T10:16:00.385Z,1019.63
2023-04-27T10:17:00.024Z,1019.62
2023-04-27T10:17:59.730Z,1019.66
2023-04-27T10:19:01.977Z,1019.62
2023-04-27T10:20:01.746Z,1019.64
2023-04-27T10:21:01.099Z,1019.63
2023-04-27T10:22:01.068Z,1019.64
2023-04-27T10:23:00.636Z,1019.64
2023-04-27T10:24:00.185Z,1019.62
2023-04-27T10:24:59.839Z,1019.64
2023-04-27T10:26:01.933Z,1019.61
2023-04-27T10:27:01.027Z,1019.66
2023-04-27T10:28:01.177Z,1019.6
2023-04-27T10:29:01.112Z,1019.58
2023-04-27T10:30:01.534Z,1019.65
2023-04-27T10:31:01.144Z,1019.65
2023-04-27T10:32:02.943Z,1019.59
2023-04-27T10:33:00.714Z,1019.64
2023-04-27T10:34:00.300Z,1019.65
2023-04-27T10:34:59.997Z,1019.62
2023-04-27T10:35:59.688Z,1019.62
2023-04-27T10:37:04.378Z,1019.61
2023-04-27T10:38:02.377Z,1019.64
2023-04-27T10:39:01.274Z,1019.62
2023-04-27T10:40:03.909Z,1019.63
2023-04-27T10:41:02.255Z,1019.58
2023-04-27T10:42:08.668Z,1019.58
2023-04-27T10:43:00.977Z,1019.61
2023-04-27T10:44:01.080Z,1019.56
2023-04-27T10:45:01.099Z,1019.56
2023-04-27T10:46:01.067Z,1019.53
2023-04-27T10:47:10.023Z,1019.57
2023-04-27T10:48:01.874Z,1019.57
2023-04-27T10:49:01.517Z,1019.57
2023-04-27T10:50:01.144Z,1019.55
2023-04-27T10:51:01.030Z,1019.6
2023-04-27T10:52:14.267Z,1019.56
2023-04-27T10:53:01.094Z,1019.51
2023-04-27T10:54:01.047Z,1019.54
2023-04-27T10:55:00.753Z,1019.54
2023-04-27T10:56:00.458Z,1019.49
2023-04-27T10:57:14.855Z,1019.59
2023-04-27T10:58:00.959Z,1019.57
2023-04-27T10:59:01.379Z,1019.6
2023-04-27T11:00:01.419Z,1019.63
2023-04-27T11:01:01.498Z,1019.58
2023-04-27T11:02:01.191Z,1019.58
2023-04-27T11:03:01.595Z,1019.58
2023-04-27T11:04:01.132Z,1019.57
2023-04-27T11:05:01.084Z,1019.58
2023-04-27T11:06:01.144Z,1019.61
2023-04-27T11:07:01.172Z,1019.62
2023-04-27T11:08:00.819Z,1019.65
2023-04-27T11:09:01.452Z,1019.62
2023-04-27T11:10:01.226Z,1019.59
2023-04-27T11:11:04.057Z,1019.6
2023-04-27T11:12:01.733Z,1019.56
2023-04-27T11:13:01.302Z,1019.5
2023-04-27T11:14:01.978Z,1019.55
2023-04-27T11:15:01.504Z,1019.51
2023-04-27T11:16:01.186Z,1019.51
2023-04-27T11:17:01.092Z,1019.5
2023-04-27T11:18:00.919Z,1019.52
2023-04-27T11:19:01.130Z,1019.53
2023-04-27T11:20:01.184Z,1019.5
2023-04-27T11:21:01.927Z,1019.49
2023-04-27T11:22:02.068Z,1019.51
2023-04-27T11:23:00.600Z,1019.54
2023-04-27T11:24:00.143Z,1019.56
2023-04-27T11:24:59.803Z,1019.62
2023-04-27T11:26:01.403Z,1019.61
2023-04-27T11:27:01.638Z,1019.58
2023-04-27T11:28:01.484Z,1019.63
2023-04-27T11:29:01.602Z,1019.66
2023-04-27T11:30:01.067Z,1019.63
2023-04-27T11:31:01.423Z,1019.64
2023-04-27T11:32:01.746Z,1019.66
2023-04-27T11:33:01.273Z,1019.64
2023-04-27T11:34:02.009Z,1019.62
2023-04-27T11:35:00.988Z,1019.64
2023-04-27T11:36:01.887Z,1019.58
2023-04-27T11:38:01.942Z,1019.58
2023-04-27T11:39:01.877Z,1019.55
2023-04-27T11:40:01.436Z,1019.55
2023-04-27T11:41:01.534Z,1019.55
2023-04-27T11:42:02.463Z,1019.59
2023-04-27T11:43:01.664Z,1019.58
2023-04-27T11:44:02.371Z,1019.55
2023-04-27T11:45:01.372Z,1019.58
2023-04-27T11:46:02.088Z,1019.62
2023-04-27T11:47:01.124Z,1019.61
2023-04-27T11:48:00.788Z,1019.57
2023-04-27T11:49:00.368Z,1019.61
2023-04-27T11:49:59.983Z,1019.59
2023-04-27T11:50:59.550Z,1019.59
2023-04-27T11:52:01.835Z,1019.51
2023-04-27T11:53:02.231Z,1019.6
2023-04-27T11:54:02.357Z,1019.52
2023-04-27T11:55:01.937Z,1019.55
2023-04-27T11:56:01.015Z,1019.63
2023-04-27T11:57:01.827Z,1019.59
2023-04-27T11:58:01.664Z,1019.62
2023-04-27T11:59:01.459Z,1019.57
2023-04-27T12:00:02.600Z,1019.59
2023-04-27T12:01:02.811Z,1019.57
2023-04-27T12:02:02.597Z,1019.62
2023-04-27T12:03:02.041Z,1019.59
2023-04-27T12:04:02.513Z,1019.59
2023-04-27T12:05:01.797Z,1019.65
2023-04-27T12:06:15.926Z,1019.62
2023-04-27T12:07:01.113Z,1019.66
2023-04-27T12:08:00.895Z,1019.67
2023-04-27T12:09:01.503Z,1019.74